createdAt,value
2018-07-12T00:00:20.949Z,9.07
2018-07-12T00:02:48.337Z,12.43
2018-07-12T00:05:15.728Z,9.37
2018-07-12T00:07:43.111Z,10.40
2018-07-12T00:10:10.492Z,12.53
2018-07-12T00:12:37.891Z,10.67
2018-07-12T00:15:05.384Z,13.40
2018-07-12T00:17:32.761Z,15.33
2018-07-12T00:20:00.160Z,14.63
2018-07-12T00:22:27.557Z,15.23
2018-07-12T00:24:54.955Z,14.53
2018-07-12T00:27:22.353Z,16.40
2018-07-12T00:29:49.714Z,15.50
2018-07-12T00:32:17.071Z,18.10
2018-07-12T00:34:44.527Z,18.13
2018-07-12T00:37:11.900Z,17.67
2018-07-12T00:39:39.289Z,19.17
2018-07-12T00:42:06.698Z,22.40
2018-07-12T00:44:34.082Z,20.27
2018-07-12T00:47:02.645Z,20.03
2018-07-12T00:49:30.061Z,19.17
2018-07-12T00:51:57.431Z,20.63
2018-07-12T00:54:25.073Z,18.07
2018-07-12T00:56:52.483Z,24.63
2018-07-12T00:59:19.898Z,19.90
2018-07-12T01:01:47.350Z,20.63
2018-07-12T01:04:14.804Z,20.90
2018-07-12T01:06:42.590Z,20.17
2018-07-12T01:09:09.971Z,19.37
2018-07-12T01:11:37.875Z,23.13
2018-07-12T01:14:05.269Z,21.03
2018-07-12T01:16:32.661Z,19.43
2018-07-12T01:19:00.162Z,20.23
2018-07-12T01:21:27.530Z,20.37
2018-07-12T01:23:54.919Z,20.20
2018-07-12T01:26:22.322Z,20.73
2018-07-12T01:28:49.725Z,18.47
2018-07-12T01:31:17.126Z,20.83
2018-07-12T01:33:44.503Z,21.83
2018-07-12T01:36:11.908Z,23.33
2018-07-12T01:38:39.295Z,25.83
2018-07-12T01:41:06.814Z,21.20
2018-07-12T01:43:34.238Z,23.63
2018-07-12T01:46:01.610Z,23.70
2018-07-12T01:48:29.000Z,20.40
2018-07-12T01:50:56.391Z,21.93
2018-07-12T01:53:23.887Z,20.43
2018-07-12T01:55:51.280Z,21.50
2018-07-12T01:58:18.706Z,19.67
2018-07-12T02:00:46.511Z,22.87
2018-07-12T02:03:13.964Z,21.50
2018-07-12T02:05:41.432Z,21.83
2018-07-12T02:08:08.803Z,21.43
2018-07-12T02:10:36.240Z,23.40
2018-07-12T02:13:03.621Z,23.90
2018-07-12T02:15:31.047Z,25.20
2018-07-12T02:17:58.461Z,23.67
2018-07-12T02:20:25.951Z,24.40
2018-07-12T02:22:53.739Z,24.23
2018-07-12T02:25:21.175Z,23.13
2018-07-12T02:27:48.557Z,20.57
2018-07-12T02:30:15.951Z,24.87
2018-07-12T02:32:43.341Z,23.00
2018-07-12T02:35:10.817Z,23.30
2018-07-12T02:37:38.664Z,24.20
2018-07-12T02:40:06.071Z,26.87
2018-07-12T02:42:33.427Z,26.10
2018-07-12T02:45:00.806Z,24.93
2018-07-12T02:47:28.518Z,25.60
2018-07-12T02:49:55.880Z,29.67
2018-07-12T02:52:23.260Z,29.73
2018-07-12T02:54:50.668Z,27.93
2018-07-12T02:57:18.038Z,31.23
2018-07-12T02:59:45.415Z,30.10
2018-07-12T03:02:12.829Z,30.43
2018-07-12T03:04:40.217Z,33.73
2018-07-12T03:07:07.602Z,35.43
2018-07-12T03:09:35.021Z,37.43
2018-07-12T03:12:02.416Z,38.33
2018-07-12T03:14:29.770Z,38.57
2018-07-12T03:16:57.424Z,37.60
2018-07-12T03:19:24.921Z,35.33
2018-07-12T03:21:52.287Z,39.20
2018-07-12T03:24:19.704Z,38.53
2018-07-12T03:26:47.343Z,37.50
2018-07-12T03:29:14.718Z,35.03
2018-07-12T03:31:42.151Z,36.87
2018-07-12T03:34:09.525Z,38.63
2018-07-12T03:36:36.907Z,37.33
2018-07-12T03:39:04.857Z,37.60
2018-07-12T03:41:32.220Z,32.73
2018-07-12T03:43:59.590Z,35.00
2018-07-12T03:49:19.169Z,32.20
2018-07-12T03:51:46.781Z,35.60
2018-07-12T03:54:14.149Z,32.70
2018-07-12T03:56:42.444Z,36.70
2018-07-12T03:59:09.855Z,36.50
2018-07-12T04:01:37.428Z,38.90
2018-07-12T04:04:04.826Z,40.40
2018-07-12T04:06:32.201Z,41.20
2018-07-12T04:08:59.579Z,39.57
2018-07-12T04:11:26.980Z,42.37
2018-07-12T04:13:54.341Z,42.07
2018-07-12T04:16:21.715Z,41.30
2018-07-12T04:18:49.111Z,44.97
2018-07-12T04:21:16.475Z,46.70
2018-07-12T04:23:43.865Z,41.70
2018-07-12T04:26:11.248Z,46.50
2018-07-12T04:28:38.623Z,41.07
2018-07-12T04:31:06.000Z,42.17
2018-07-12T04:33:33.498Z,39.40
2018-07-12T04:36:00.875Z,36.93
2018-07-12T04:38:28.373Z,37.57
2018-07-12T04:40:55.825Z,34.60
2018-07-12T04:43:23.310Z,35.40
2018-07-12T04:45:50.688Z,33.03
2018-07-12T04:48:18.073Z,34.77
2018-07-12T04:50:45.439Z,30.70
2018-07-12T04:53:12.815Z,32.37
2018-07-12T04:55:40.197Z,34.20
2018-07-12T04:58:07.955Z,33.57
2018-07-12T07:50:17.497Z,24.80
2018-07-12T07:52:46.042Z,27.20
2018-07-12T07:55:14.651Z,25.97
2018-07-12T07:57:43.370Z,24.97
2018-07-12T08:00:11.884Z,24.73
2018-07-12T08:02:40.437Z,20.97
2018-07-12T08:05:09.008Z,20.70
2018-07-12T08:07:37.536Z,17.40
2018-07-12T08:10:06.124Z,16.40
2018-07-12T08:12:34.691Z,18.03
2018-07-12T08:15:03.542Z,18.80
2018-07-12T08:17:32.768Z,17.73
2018-07-12T08:20:01.278Z,16.67
2018-07-12T08:22:29.821Z,14.93
2018-07-12T08:24:58.384Z,14.70
2018-07-12T08:27:26.925Z,14.80
2018-07-12T08:29:55.587Z,15.47
2018-07-12T08:32:24.104Z,15.17
2018-07-12T08:34:52.674Z,14.70
2018-07-12T08:37:21.291Z,12.50
2018-07-12T08:39:49.904Z,12.73
2018-07-12T08:42:18.476Z,14.90
2018-07-12T08:44:47.590Z,13.27
2018-07-12T08:47:16.122Z,12.70
2018-07-12T08:49:45.059Z,11.50
2018-07-12T08:52:13.601Z,13.40
2018-07-12T08:54:42.275Z,12.00
2018-07-12T08:57:10.812Z,12.17
2018-07-12T08:59:39.372Z,9.27
2018-07-12T09:02:08.014Z,11.93
2018-07-12T09:04:36.555Z,9.90
2018-07-12T09:07:05.179Z,9.53
2018-07-12T09:09:33.698Z,8.40
2018-07-12T09:12:02.294Z,7.53
2018-07-12T09:14:30.875Z,7.60
2018-07-12T09:16:59.560Z,10.33
2018-07-12T09:19:28.143Z,8.30
2018-07-12T09:21:57.829Z,8.43
2018-07-12T09:24:27.285Z,8.33
2018-07-12T09:26:56.916Z,8.83
2018-07-12T09:29:25.469Z,6.63
2018-07-12T09:31:54.096Z,6.90
2018-07-12T09:34:22.622Z,7.20
2018-07-12T09:36:51.310Z,7.40
2018-07-12T09:39:19.844Z,7.23
2018-07-12T09:41:48.399Z,7.47
2018-07-12T09:44:16.969Z,6.70
2018-07-12T09:46:45.515Z,5.50
2018-07-12T09:49:15.131Z,6.20
2018-07-12T09:51:43.532Z,6.40
2018-07-12T09:54:12.050Z,5.97
2018-07-12T09:56:51.938Z,6.13
2018-07-12T09:59:20.477Z,5.07
2018-07-12T10:01:54.476Z,5.80
2018-07-12T10:04:26.527Z,6.77
2018-07-12T10:07:00.856Z,5.50
2018-07-12T10:09:34.756Z,6.07
2018-07-12T10:12:08.575Z,5.37
2018-07-12T10:14:42.523Z,5.10
2018-07-12T10:17:12.073Z,5.27
2018-07-12T10:19:42.099Z,4.73
2018-07-12T10:22:11.393Z,5.90
2018-07-12T10:24:39.982Z,4.63
2018-07-12T10:27:08.536Z,4.40
2018-07-12T10:29:37.151Z,4.57
2018-07-12T10:32:06.100Z,5.33
2018-07-12T10:34:34.680Z,4.60
2018-07-12T10:37:03.229Z,5.73
2018-07-12T10:39:31.766Z,5.03
2018-07-12T10:42:00.482Z,4.60
2018-07-12T10:44:29.013Z,5.20
2018-07-12T10:46:58.080Z,5.33
2018-07-12T10:49:26.743Z,5.23
2018-07-12T10:51:55.247Z,5.27
2018-07-12T10:54:23.755Z,5.37
2018-07-12T10:56:52.333Z,5.50
2018-07-12T10:59:20.866Z,4.60
2018-07-12T11:01:49.428Z,4.80
2018-07-12T11:04:17.656Z,6.03
2018-07-12T11:06:46.211Z,5.80
2018-07-12T11:09:14.807Z,5.67
2018-07-12T11:11:43.393Z,6.23
2018-07-12T11:14:11.902Z,5.90
2018-07-12T11:16:40.423Z,5.57
2018-07-12T11:19:09.043Z,4.97
2018-07-12T11:21:37.577Z,5.57
2018-07-12T11:24:07.008Z,6.43
2018-07-12T11:26:36.496Z,7.60
2018-07-12T11:29:05.025Z,6.10
2018-07-12T11:31:33.575Z,4.57
2018-07-12T11:34:03.003Z,4.40
2018-07-12T11:36:31.515Z,4.73
2018-07-12T11:39:00.601Z,4.53
2018-07-12T11:41:29.508Z,4.07
2018-07-12T11:43:58.022Z,4.60
2018-07-12T11:46:26.566Z,4.30
2018-07-12T11:48:55.087Z,4.10
2018-07-12T11:51:23.286Z,5.27
2018-07-12T11:53:51.913Z,4.27
2018-07-12T11:56:20.451Z,4.13
2018-07-12T11:58:49.857Z,3.83
2018-07-12T12:01:18.569Z,4.03
2018-07-12T12:03:47.174Z,5.00
2018-07-12T12:06:15.679Z,3.33
2018-07-12T12:08:44.341Z,3.60
2018-07-12T12:11:12.880Z,5.03
2018-07-12T12:13:41.452Z,3.90
2018-07-12T12:16:10.006Z,4.67
2018-07-12T12:18:38.530Z,4.90
2018-07-12T12:21:07.052Z,3.60
2018-07-12T12:23:35.608Z,2.87
2018-07-12T12:26:04.115Z,2.80
2018-07-12T12:28:32.660Z,3.03
2018-07-12T12:31:01.212Z,3.23
2018-07-12T12:33:30.463Z,3.40
2018-07-12T12:35:59.028Z,4.53
2018-07-12T12:38:27.639Z,5.40
2018-07-12T12:40:56.160Z,5.10
2018-07-12T12:43:24.733Z,4.70
2018-07-12T12:45:53.345Z,4.47
2018-07-12T12:48:21.864Z,4.20
2018-07-12T12:50:50.391Z,4.97
2018-07-12T12:53:18.938Z,4.50
2018-07-12T12:55:47.455Z,3.07
2018-07-12T12:58:16.726Z,3.40
2018-07-12T13:00:45.338Z,4.27
2018-07-12T13:03:13.975Z,3.50
2018-07-12T13:05:42.484Z,4.00
2018-07-12T13:08:11.068Z,3.80
2018-07-12T13:10:39.659Z,4.30
2018-07-12T13:13:08.287Z,4.17
2018-07-12T13:15:36.948Z,3.60
2018-07-12T13:18:05.779Z,2.90
2018-07-12T13:20:34.392Z,3.77
2018-07-12T13:23:02.938Z,3.57
2018-07-12T13:25:31.491Z,2.77
2018-07-12T13:28:00.068Z,3.30
2018-07-12T13:30:28.665Z,2.27
2018-07-12T13:32:57.306Z,2.13
2018-07-12T13:35:25.997Z,2.60
2018-07-12T13:37:54.551Z,2.17
2018-07-12T13:40:23.082Z,2.93
2018-07-12T13:42:51.582Z,3.70
2018-07-12T13:45:20.098Z,3.37
2018-07-12T13:47:48.697Z,3.30
2018-07-12T13:50:17.293Z,2.57
2018-07-12T13:52:45.804Z,2.73
2018-07-12T13:55:14.388Z,3.20
2018-07-12T13:57:42.926Z,3.07
2018-07-12T14:00:12.358Z,4.00
2018-07-12T14:02:40.931Z,3.90
2018-07-12T14:05:09.511Z,5.07
2018-07-12T14:07:38.321Z,3.50
2018-07-12T14:10:06.993Z,3.67
2018-07-12T14:12:35.499Z,4.40
2018-07-12T14:15:04.205Z,5.40
2018-07-12T14:17:32.764Z,4.47
2018-07-12T14:20:01.263Z,3.70
2018-07-12T14:22:29.819Z,5.40
2018-07-12T14:24:58.437Z,4.80
2018-07-12T14:27:27.077Z,3.77
2018-07-12T14:29:55.689Z,4.10
2018-07-12T14:32:24.277Z,3.67
2018-07-12T14:34:52.894Z,3.07
2018-07-12T14:37:21.887Z,4.17
2018-07-12T14:39:50.523Z,4.53
2018-07-12T14:42:19.203Z,4.37
2018-07-12T14:44:47.893Z,3.90
2018-07-12T14:47:16.450Z,3.73
2018-07-12T14:49:45.074Z,3.67
2018-07-12T14:52:13.645Z,3.93
2018-07-12T14:54:42.217Z,4.50
2018-07-12T14:57:10.729Z,4.27
2018-07-12T14:59:39.735Z,4.60
2018-07-12T15:02:08.353Z,4.37
2018-07-12T15:04:36.874Z,4.43
2018-07-12T15:07:05.514Z,3.47
2018-07-12T15:09:34.034Z,3.17
2018-07-12T15:12:02.554Z,3.10
2018-07-12T15:14:31.099Z,3.47
2018-07-12T15:16:59.660Z,3.30
2018-07-12T15:19:28.269Z,3.50
2018-07-12T15:21:56.799Z,3.70
2018-07-12T15:24:25.855Z,3.50
2018-07-12T15:26:54.525Z,2.73
2018-07-12T15:29:23.237Z,3.50
2018-07-12T15:31:51.707Z,2.70
2018-07-12T15:34:20.222Z,3.40
2018-07-12T15:36:48.824Z,3.50
2018-07-12T15:39:17.378Z,3.53
2018-07-12T15:41:45.974Z,3.87
2018-07-12T15:44:14.501Z,4.00
2018-07-12T15:46:43.013Z,4.07
2018-07-12T15:49:11.540Z,3.63
2018-07-12T15:51:40.070Z,4.47
2018-07-12T15:54:08.612Z,3.13
2018-07-12T15:56:37.198Z,3.97
2018-07-12T15:59:05.763Z,3.00
2018-07-12T16:01:34.338Z,3.00
2018-07-12T16:04:02.853Z,3.80
2018-07-12T16:06:31.410Z,3.40
2018-07-12T16:08:59.990Z,3.80
2018-07-12T16:11:28.509Z,3.67
2018-07-12T16:13:57.052Z,2.90
2018-07-12T16:16:25.598Z,3.50
2018-07-12T16:18:54.115Z,3.10
2018-07-12T16:21:22.679Z,4.07
2018-07-12T16:23:51.212Z,3.83
2018-07-12T16:26:19.750Z,3.03
2018-07-12T16:28:51.375Z,3.53
2018-07-12T16:31:19.984Z,3.40
2018-07-12T16:33:48.494Z,3.60
2018-07-12T16:36:17.063Z,3.63
2018-07-12T16:38:45.670Z,4.23
2018-07-12T16:41:14.185Z,2.30
2018-07-12T16:43:42.757Z,3.53
2018-07-12T16:46:11.412Z,3.73
2018-07-12T16:48:40.034Z,4.90
2018-07-12T16:51:08.522Z,3.73
2018-07-12T16:53:37.261Z,3.67
2018-07-12T16:56:05.930Z,4.37
2018-07-12T16:58:34.488Z,3.83
2018-07-12T17:01:03.018Z,3.30
2018-07-12T17:03:33.059Z,2.90
2018-07-12T17:06:01.566Z,3.23
2018-07-12T17:08:30.186Z,4.10
2018-07-12T17:10:58.735Z,3.53
2018-07-12T17:13:27.982Z,3.10
2018-07-12T17:15:56.522Z,2.80
2018-07-12T17:18:25.019Z,3.60
2018-07-12T17:20:53.637Z,3.90
2018-07-12T17:23:22.136Z,3.60
2018-07-12T17:25:50.662Z,3.23
2018-07-12T17:28:19.181Z,3.47
2018-07-12T17:30:47.766Z,3.80
2018-07-12T17:33:17.856Z,4.17
2018-07-12T17:35:46.523Z,3.00
2018-07-12T17:38:15.057Z,3.30
2018-07-12T17:40:43.646Z,3.87
2018-07-12T17:43:12.189Z,3.63
2018-07-12T17:45:40.694Z,3.80
2018-07-12T17:48:09.926Z,4.10
2018-07-12T17:50:38.476Z,4.20
2018-07-12T17:53:07.801Z,4.20
2018-07-12T17:55:36.309Z,3.90
2018-07-12T17:58:04.943Z,3.90
2018-07-12T18:00:33.461Z,3.50
2018-07-12T18:03:02.053Z,4.20
2018-07-12T18:05:31.662Z,4.03
2018-07-12T18:08:00.164Z,4.17
2018-07-12T18:10:28.674Z,4.10
2018-07-12T18:12:57.215Z,4.47
2018-07-12T18:15:25.752Z,4.00
2018-07-12T18:17:54.278Z,5.33
2018-07-12T18:20:22.818Z,5.40
2018-07-12T18:22:51.557Z,4.87
2018-07-12T18:25:20.082Z,4.40
2018-07-12T18:27:48.620Z,3.90
2018-07-12T18:30:17.197Z,3.80
2018-07-12T18:39:32.295Z,4.37
2018-07-12T18:42:00.845Z,4.60
2018-07-12T18:44:29.375Z,3.87
2018-07-12T18:46:58.241Z,4.37
2018-07-12T18:49:27.754Z,4.67
2018-07-12T18:51:56.274Z,5.07
2018-07-12T18:54:24.815Z,4.13
2018-07-12T18:56:54.395Z,4.70
2018-07-12T18:59:22.987Z,5.83
2018-07-12T19:01:51.600Z,5.63
2018-07-12T19:04:20.163Z,5.50
2018-07-12T19:06:49.066Z,4.07
2018-07-12T19:09:17.635Z,5.27
2018-07-12T19:11:46.249Z,3.53
2018-07-12T19:14:14.757Z,4.60
2018-07-12T19:16:43.373Z,4.40
2018-07-12T19:19:11.976Z,4.07
2018-07-12T19:21:40.499Z,4.33
2018-07-12T19:24:09.071Z,4.13
2018-07-12T19:26:37.602Z,4.63
2018-07-12T19:29:05.817Z,3.47
2018-07-12T19:31:34.381Z,4.07
2018-07-12T19:34:02.950Z,3.43
2018-07-12T19:36:31.566Z,5.00
2018-07-12T19:39:00.216Z,3.30
2018-07-12T19:41:28.849Z,3.50
2018-07-12T19:43:57.663Z,3.40
2018-07-12T19:46:27.690Z,4.07
2018-07-12T19:48:56.247Z,3.80
2018-07-12T19:51:24.895Z,3.07
2018-07-12T19:53:53.830Z,3.70
2018-07-12T19:56:22.386Z,4.17
2018-07-12T19:58:51.028Z,3.43
2018-07-12T20:01:19.654Z,4.20
2018-07-12T20:03:48.219Z,2.93
2018-07-12T20:06:16.789Z,4.07
2018-07-12T20:08:45.339Z,3.13
2018-07-12T20:11:13.861Z,3.70
2018-07-12T20:13:42.509Z,3.93
2018-07-12T20:16:11.036Z,3.57
2018-07-12T20:18:39.746Z,3.77
2018-07-12T20:21:08.498Z,4.10
2018-07-12T20:23:37.048Z,3.20
2018-07-12T20:26:05.910Z,3.77
2018-07-12T20:28:34.450Z,3.50
2018-07-12T20:31:03.331Z,3.40
2018-07-12T20:33:31.904Z,3.23
2018-07-12T20:36:00.447Z,5.00
2018-07-12T20:38:29.037Z,4.43
2018-07-12T20:40:57.793Z,3.10
2018-07-12T20:43:28.146Z,4.23
2018-07-12T20:45:57.169Z,2.93
2018-07-12T20:48:29.821Z,4.50
2018-07-12T20:50:58.366Z,3.70
2018-07-12T20:53:26.912Z,3.40
2018-07-12T20:55:55.431Z,4.47
2018-07-12T20:58:23.989Z,4.40
2018-07-12T21:00:52.565Z,4.70
2018-07-12T21:03:21.082Z,4.00
2018-07-12T21:05:49.628Z,3.93
2018-07-12T21:08:18.237Z,5.33
2018-07-12T21:10:46.760Z,4.50
2018-07-12T21:13:15.376Z,3.40
2018-07-12T21:15:43.893Z,4.10
2018-07-12T21:18:12.405Z,4.73
2018-07-12T21:20:40.943Z,3.80
2018-07-12T21:23:11.025Z,5.53
2018-07-12T21:25:39.773Z,5.10
2018-07-12T21:28:08.378Z,4.90
2018-07-12T21:30:36.907Z,5.00
2018-07-12T21:33:05.465Z,4.37
2018-07-12T21:35:34.057Z,4.00
2018-07-12T21:38:04.100Z,4.40
2018-07-12T21:40:32.626Z,4.20
2018-07-12T21:43:01.180Z,4.27
2018-07-12T21:45:29.829Z,5.10
2018-07-12T21:47:58.396Z,4.57
2018-07-12T21:50:27.823Z,5.30
2018-07-12T21:52:56.372Z,5.43
2018-07-12T21:55:24.915Z,4.97
2018-07-12T21:57:53.496Z,5.40
2018-07-12T22:00:22.064Z,5.47
2018-07-12T22:02:50.654Z,5.10
2018-07-12T22:05:20.190Z,6.13
2018-07-12T22:08:00.504Z,5.90
2018-07-12T22:10:29.082Z,4.93
2018-07-12T22:12:57.651Z,5.80
2018-07-12T22:15:26.239Z,6.50
2018-07-12T22:17:54.818Z,6.43
2018-07-12T22:20:23.362Z,5.80
2018-07-12T22:22:51.876Z,6.87
2018-07-12T22:25:20.487Z,5.93
2018-07-12T22:27:49.565Z,5.90
2018-07-12T22:30:18.092Z,5.47
2018-07-12T22:32:46.682Z,5.30
2018-07-12T22:35:15.309Z,9.13
2018-07-12T22:37:43.881Z,6.17
2018-07-12T22:40:12.457Z,5.60
2018-07-12T22:42:42.258Z,5.93
2018-07-12T22:45:10.883Z,6.97
2018-07-12T22:47:39.490Z,6.50
2018-07-12T22:50:08.062Z,6.60
2018-07-12T22:52:37.291Z,6.13
2018-07-12T22:55:05.879Z,7.20
2018-07-12T22:57:34.644Z,7.60
2018-07-12T23:00:03.273Z,6.47
2018-07-12T23:02:31.987Z,7.27
2018-07-12T23:05:00.616Z,7.37
2018-07-12T23:07:30.413Z,7.00
2018-07-12T23:10:00.291Z,7.67
2018-07-12T23:12:29.040Z,7.80
2018-07-12T23:14:57.559Z,8.60
2018-07-12T23:17:26.089Z,8.27
2018-07-12T23:19:54.632Z,7.90
2018-07-12T23:22:22.868Z,8.50
2018-07-12T23:24:51.497Z,8.50
2018-07-12T23:27:20.577Z,10.30
2018-07-12T23:29:49.085Z,8.40
2018-07-12T23:32:17.664Z,9.13
2018-07-12T23:34:46.178Z,8.63
2018-07-12T23:37:14.792Z,8.97
2018-07-12T23:39:44.133Z,9.30
2018-07-12T23:42:12.651Z,10.50
2018-07-12T23:44:42.030Z,9.57
2018-07-12T23:47:10.570Z,8.57
2018-07-12T23:49:39.152Z,9.97
2018-07-12T23:52:07.710Z,10.73
2018-07-12T23:54:36.889Z,10.50
2018-07-12T23:57:05.446Z,12.57
2018-07-12T23:59:35.181Z,10.33
